sensor_id;sensor_type;location;lat;lon;timestamp;P1;durP1;ratioP1;P2;durP2;ratioP2
13764;SDS011;6953;48.810;9.204;2024-02-26T00:01:23;0.60;;;0.60;;
13764;SDS011;6953;48.810;9.204;2024-02-26T00:03:48;0.60;;;0.60;;
13764;SDS011;6953;48.810;9.204;2024-02-26T00:06:13;0.57;;;0.57;;
13764;SDS011;6953;48.810;9.204;2024-02-26T00:08:39;0.60;;;0.60;;
13764;SDS011;6953;48.810;9.204;2024-02-26T00:11:04;0.60;;;0.60;;
13764;SDS011;6953;48.810;9.204;2024-02-26T00:13:29;0.60;;;0.60;;
13764;SDS011;6953;48.810;9.204;2024-02-26T00:15:55;0.60;;;0.60;;
13764;SDS011;6953;48.810;9.204;2024-02-26T00:18:20;0.60;;;0.60;;
13764;SDS011;6953;48.810;9.204;2024-02-26T00:20:47;0.60;;;0.60;;
13764;SDS011;6953;48.810;9.204;2024-02-26T00:23:14;0.68;;;0.68;;
13764;SDS011;6953;48.810;9.204;2024-02-26T00:25:40;0.60;;;0.60;;
13764;SDS011;6953;48.810;9.204;2024-02-26T00:28:07;0.60;;;0.60;;
13764;SDS011;6953;48.810;9.204;2024-02-26T00:30:33;0.70;;;0.70;;
13764;SDS011;6953;48.810;9.204;2024-02-26T00:32:58;0.60;;;0.60;;
13764;SDS011;6953;48.810;9.204;2024-02-26T00:35:23;0.60;;;0.60;;
13764;SDS011;6953;48.810;9.204;2024-02-26T00:37:48;0.60;;;0.60;;
13764;SDS011;6953;48.810;9.204;2024-02-26T00:40:14;0.60;;;0.60;;
13764;SDS011;6953;48.810;9.204;2024-02-26T00:42:39;0.57;;;0.57;;
13764;SDS011;6953;48.810;9.204;2024-02-26T00:45:10;0.60;;;0.60;;
13764;SDS011;6953;48.810;9.204;2024-02-26T00:47:35;0.50;;;0.50;;
13764;SDS011;6953;48.810;9.204;2024-02-26T00:50:01;0.70;;;0.70;;
13764;SDS011;6953;48.810;9.204;2024-02-26T00:52:26;0.60;;;0.60;;
13764;SDS011;6953;48.810;9.204;2024-02-26T00:54:51;0.60;;;0.60;;
13764;SDS011;6953;48.810;9.204;2024-02-26T00:57:17;0.60;;;0.60;;
13764;SDS011;6953;48.810;9.204;2024-02-26T00:59:43;0.60;;;0.60;;
13764;SDS011;6953;48.810;9.204;2024-02-26T01:02:09;0.50;;;0.50;;
13764;SDS011;6953;48.810;9.204;2024-02-26T01:04:34;0.47;;;0.47;;
13764;SDS011;6953;48.810;9.204;2024-02-26T01:06:59;0.68;;;0.68;;
13764;SDS011;6953;48.810;9.204;2024-02-26T01:09:25;0.57;;;0.57;;
13764;SDS011;6953;48.810;9.204;2024-02-26T01:11:50;0.60;;;0.60;;
13764;SDS011;6953;48.810;9.204;2024-02-26T01:14:15;0.60;;;0.60;;
13764;SDS011;6953;48.810;9.204;2024-02-26T01:16:41;0.52;;;0.52;;
13764;SDS011;6953;48.810;9.204;2024-02-26T01:19:06;0.60;;;0.60;;
13764;SDS011;6953;48.810;9.204;2024-02-26T01:21:31;0.50;;;0.50;;
13764;SDS011;6953;48.810;9.204;2024-02-26T01:23:57;0.70;;;0.70;;
13764;SDS011;6953;48.810;9.204;2024-02-26T01:26:22;0.50;;;0.50;;
13764;SDS011;6953;48.810;9.204;2024-02-26T01:28:47;0.43;;;0.43;;
13764;SDS011;6953;48.810;9.204;2024-02-26T01:31:13;0.57;;;0.57;;
13764;SDS011;6953;48.810;9.204;2024-02-26T01:33:38;0.50;;;0.50;;
13764;SDS011;6953;48.810;9.204;2024-02-26T01:36:03;0.43;;;0.43;;
13764;SDS011;6953;48.810;9.204;2024-02-26T01:38:29;0.60;;;0.60;;
13764;SDS011;6953;48.810;9.204;2024-02-26T01:40:54;0.50;;;0.50;;
13764;SDS011;6953;48.810;9.204;2024-02-26T01:43:19;0.47;;;0.47;;
13764;SDS011;6953;48.810;9.204;2024-02-26T01:45:45;0.60;;;0.60;;
13764;SDS011;6953;48.810;9.204;2024-02-26T01:48:10;0.52;;;0.52;;
13764;SDS011;6953;48.810;9.204;2024-02-26T01:50:35;0.45;;;0.45;;
13764;SDS011;6953;48.810;9.204;2024-02-26T01:53:03;0.50;;;0.50;;
13764;SDS011;6953;48.810;9.204;2024-02-26T01:55:29;0.57;;;0.57;;
13764;SDS011;6953;48.810;9.204;2024-02-26T01:57:54;0.50;;;0.50;;
13764;SDS011;6953;48.810;9.204;2024-02-26T02:00:20;0.60;;;0.60;;
13764;SDS011;6953;48.810;9.204;2024-02-26T02:02:46;0.47;;;0.47;;
13764;SDS011;6953;48.810;9.204;2024-02-26T02:05:14;0.60;;;0.60;;
13764;SDS011;6953;48.810;9.204;2024-02-26T02:07:41;0.65;;;0.65;;
13764;SDS011;6953;48.810;9.204;2024-02-26T02:10:07;0.50;;;0.50;;
13764;SDS011;6953;48.810;9.204;2024-02-26T02:12:33;0.52;;;0.52;;
13764;SDS011;6953;48.810;9.204;2024-02-26T02:14:59;0.50;;;0.50;;
13764;SDS011;6953;48.810;9.204;2024-02-26T02:17:25;0.50;;;0.50;;
13764;SDS011;6953;48.810;9.204;2024-02-26T02:19:53;0.50;;;0.50;;
13764;SDS011;6953;48.810;9.204;2024-02-26T02:22:18;0.50;;;0.50;;
13764;SDS011;6953;48.810;9.204;2024-02-26T02:24:44;0.50;;;0.50;;
13764;SDS011;6953;48.810;9.204;2024-02-26T02:27:10;0.50;;;0.50;;
13764;SDS011;6953;48.810;9.204;2024-02-26T02:29:35;0.50;;;0.50;;
13764;SDS011;6953;48.810;9.204;2024-02-26T02:32:02;0.60;;;0.60;;
13764;SDS011;6953;48.810;9.204;2024-02-26T02:34:28;0.55;;;0.55;;
13764;SDS011;6953;48.810;9.204;2024-02-26T02:36:54;0.60;;;0.60;;
13764;SDS011;6953;48.810;9.204;2024-02-26T02:39:20;0.60;;;0.60;;
13764;SDS011;6953;48.810;9.204;2024-02-26T02:41:46;0.45;;;0.45;;
13764;SDS011;6953;48.810;9.204;2024-02-26T02:44:11;0.50;;;0.50;;
13764;SDS011;6953;48.810;9.204;2024-02-26T02:46:37;0.40;;;0.40;;
13764;SDS011;6953;48.810;9.204;2024-02-26T02:49:02;0.63;;;0.63;;
13764;SDS011;6953;48.810;9.204;2024-02-26T02:51:28;0.50;;;0.50;;
13764;SDS011;6953;48.810;9.204;2024-02-26T02:53:53;0.50;;;0.50;;
13764;SDS011;6953;48.810;9.204;2024-02-26T02:56:18;0.50;;;0.50;;
13764;SDS011;6953;48.810;9.204;2024-02-26T02:58:44;0.60;;;0.60;;
13764;SDS011;6953;48.810;9.204;2024-02-26T03:01:09;0.50;;;0.50;;
13764;SDS011;6953;48.810;9.204;2024-02-26T03:03:35;0.68;;;0.68;;
13764;SDS011;6953;48.810;9.204;2024-02-26T03:06:01;0.57;;;0.57;;
13764;SDS011;6953;48.810;9.204;2024-02-26T03:08:27;0.70;;;0.70;;
13764;SDS011;6953;48.810;9.204;2024-02-26T03:10:54;0.50;;;0.50;;
13764;SDS011;6953;48.810;9.204;2024-02-26T03:13:19;0.50;;;0.50;;
13764;SDS011;6953;48.810;9.204;2024-02-26T03:15:45;0.50;;;0.50;;
13764;SDS011;6953;48.810;9.204;2024-02-26T03:18:11;0.60;;;0.60;;
13764;SDS011;6953;48.810;9.204;2024-02-26T03:20:39;0.60;;;0.60;;
13764;SDS011;6953;48.810;9.204;2024-02-26T03:23:04;0.60;;;0.60;;
13764;SDS011;6953;48.810;9.204;2024-02-26T03:25:30;0.70;;;0.70;;
13764;SDS011;6953;48.810;9.204;2024-02-26T03:27:55;0.60;;;0.60;;
13764;SDS011;6953;48.810;9.204;2024-02-26T03:30:20;0.50;;;0.50;;
13764;SDS011;6953;48.810;9.204;2024-02-26T03:32:46;0.60;;;0.60;;
13764;SDS011;6953;48.810;9.204;2024-02-26T03:35:12;0.65;;;0.65;;
13764;SDS011;6953;48.810;9.204;2024-02-26T03:37:38;0.50;;;0.50;;
13764;SDS011;6953;48.810;9.204;2024-02-26T03:40:03;0.50;;;0.50;;
13764;SDS011;6953;48.810;9.204;2024-02-26T03:42:29;0.60;;;0.60;;
13764;SDS011;6953;48.810;9.204;2024-02-26T03:44:55;0.57;;;0.57;;
13764;SDS011;6953;48.810;9.204;2024-02-26T03:47:20;0.50;;;0.50;;
13764;SDS011;6953;48.810;9.204;2024-02-26T03:49:45;0.50;;;0.50;;
13764;SDS011;6953;48.810;9.204;2024-02-26T03:52:10;0.50;;;0.50;;
13764;SDS011;6953;48.810;9.204;2024-02-26T03:54:36;0.50;;;0.50;;
13764;SDS011;6953;48.810;9.204;2024-02-26T03:57:01;0.60;;;0.60;;
13764;SDS011;6953;48.810;9.204;2024-02-26T03:59:26;0.60;;;0.60;;
13764;SDS011;6953;48.810;9.204;2024-02-26T04:01:52;0.52;;;0.52;;
13764;SDS011;6953;48.810;9.204;2024-02-26T04:04:17;0.50;;;0.50;;
13764;SDS011;6953;48.810;9.204;2024-02-26T04:06:45;0.47;;;0.47;;
13764;SDS011;6953;48.810;9.204;2024-02-26T04:09:13;0.40;;;0.40;;
13764;SDS011;6953;48.810;9.204;2024-02-26T04:11:39;0.70;;;0.70;;
13764;SDS011;6953;48.810;9.204;2024-02-26T04:14:04;0.50;;;0.50;;
13764;SDS011;6953;48.810;9.204;2024-02-26T04:16:33;0.60;;;0.60;;
13764;SDS011;6953;48.810;9.204;2024-02-26T04:18:58;0.50;;;0.50;;
13764;SDS011;6953;48.810;9.204;2024-02-26T04:21:24;0.60;;;0.60;;
13764;SDS011;6953;48.810;9.204;2024-02-26T04:23:49;0.50;;;0.50;;
13764;SDS011;6953;48.810;9.204;2024-02-26T04:26:14;0.60;;;0.60;;
13764;SDS011;6953;48.810;9.204;2024-02-26T04:28:39;0.60;;;0.60;;
13764;SDS011;6953;48.810;9.204;2024-02-26T04:31:06;0.50;;;0.50;;
13764;SDS011;6953;48.810;9.204;2024-02-26T04:33:33;0.40;;;0.40;;
13764;SDS011;6953;48.810;9.204;2024-02-26T04:36:00;0.50;;;0.50;;
13764;SDS011;6953;48.810;9.204;2024-02-26T04:38:25;0.60;;;0.60;;
13764;SDS011;6953;48.810;9.204;2024-02-26T04:40:51;0.47;;;0.47;;
13764;SDS011;6953;48.810;9.204;2024-02-26T04:43:18;0.40;;;0.40;;
13764;SDS011;6953;48.810;9.204;2024-02-26T04:45:44;0.45;;;0.45;;
13764;SDS011;6953;48.810;9.204;2024-02-26T04:48:09;0.52;;;0.52;;
13764;SDS011;6953;48.810;9.204;2024-02-26T04:50:35;0.43;;;0.43;;
13764;SDS011;6953;48.810;9.204;2024-02-26T04:53:00;0.40;;;0.40;;
13764;SDS011;6953;48.810;9.204;2024-02-26T04:55:25;0.50;;;0.50;;
13764;SDS011;6953;48.810;9.204;2024-02-26T04:57:50;0.60;;;0.60;;
13764;SDS011;6953;48.810;9.204;2024-02-26T05:00:16;0.60;;;0.60;;
13764;SDS011;6953;48.810;9.204;2024-02-26T05:02:41;0.50;;;0.50;;
13764;SDS011;6953;48.810;9.204;2024-02-26T05:05:07;0.50;;;0.50;;
13764;SDS011;6953;48.810;9.204;2024-02-26T05:07:33;0.57;;;0.57;;
13764;SDS011;6953;48.810;9.204;2024-02-26T05:09:59;0.50;;;0.50;;
13764;SDS011;6953;48.810;9.204;2024-02-26T05:12:24;0.60;;;0.60;;
13764;SDS011;6953;48.810;9.204;2024-02-26T05:14:50;0.50;;;0.50;;
13764;SDS011;6953;48.810;9.204;2024-02-26T05:17:16;0.52;;;0.52;;
13764;SDS011;6953;48.810;9.204;2024-02-26T05:19:41;0.47;;;0.47;;
13764;SDS011;6953;48.810;9.204;2024-02-26T05:22:07;0.40;;;0.40;;
13764;SDS011;6953;48.810;9.204;2024-02-26T05:24:32;0.50;;;0.50;;
13764;SDS011;6953;48.810;9.204;2024-02-26T05:27:00;0.60;;;0.60;;
13764;SDS011;6953;48.810;9.204;2024-02-26T05:29:25;0.60;;;0.60;;
13764;SDS011;6953;48.810;9.204;2024-02-26T05:31:50;0.45;;;0.45;;
13764;SDS011;6953;48.810;9.204;2024-02-26T05:34:16;0.70;;;0.70;;
13764;SDS011;6953;48.810;9.204;2024-02-26T05:36:41;0.50;;;0.50;;
13764;SDS011;6953;48.810;9.204;2024-02-26T05:39:06;0.50;;;0.50;;
13764;SDS011;6953;48.810;9.204;2024-02-26T05:41:32;0.50;;;0.50;;
13764;SDS011;6953;48.810;9.204;2024-02-26T05:43:57;0.50;;;0.50;;
13764;SDS011;6953;48.810;9.204;2024-02-26T05:46:23;0.50;;;0.50;;
13764;SDS011;6953;48.810;9.204;2024-02-26T05:48:52;0.50;;;0.50;;
13764;SDS011;6953;48.810;9.204;2024-02-26T05:51:17;0.60;;;0.60;;
13764;SDS011;6953;48.810;9.204;2024-02-26T05:53:43;0.50;;;0.50;;
13764;SDS011;6953;48.810;9.204;2024-02-26T05:56:09;0.50;;;0.50;;
13764;SDS011;6953;48.810;9.204;2024-02-26T05:58:35;0.40;;;0.40;;
13764;SDS011;6953;48.810;9.204;2024-02-26T06:01:00;0.40;;;0.40;;
13764;SDS011;6953;48.810;9.204;2024-02-26T06:03:26;0.50;;;0.50;;
13764;SDS011;6953;48.810;9.204;2024-02-26T06:05:54;0.40;;;0.40;;
13764;SDS011;6953;48.810;9.204;2024-02-26T06:08:20;0.55;;;0.55;;
13764;SDS011;6953;48.810;9.204;2024-02-26T06:10:45;0.40;;;0.40;;
13764;SDS011;6953;48.810;9.204;2024-02-26T06:13:11;0.60;;;0.60;;
13764;SDS011;6953;48.810;9.204;2024-02-26T06:15:36;0.50;;;0.50;;
13764;SDS011;6953;48.810;9.204;2024-02-26T06:18:01;0.50;;;0.50;;
13764;SDS011;6953;48.810;9.204;2024-02-26T06:20:27;0.50;;;0.50;;
13764;SDS011;6953;48.810;9.204;2024-02-26T06:22:52;0.50;;;0.50;;
13764;SDS011;6953;48.810;9.204;2024-02-26T06:25:17;0.60;;;0.60;;
13764;SDS011;6953;48.810;9.204;2024-02-26T06:27:43;0.40;;;0.40;;
13764;SDS011;6953;48.810;9.204;2024-02-26T06:30:10;0.60;;;0.60;;
13764;SDS011;6953;48.810;9.204;2024-02-26T06:32:36;0.50;;;0.50;;
13764;SDS011;6953;48.810;9.204;2024-02-26T06:35:04;0.70;;;0.70;;
13764;SDS011;6953;48.810;9.204;2024-02-26T06:37:35;0.50;;;0.50;;
13764;SDS011;6953;48.810;9.204;2024-02-26T06:40:01;0.60;;;0.60;;
13764;SDS011;6953;48.810;9.204;2024-02-26T06:42:29;0.60;;;0.60;;
13764;SDS011;6953;48.810;9.204;2024-02-26T06:44:55;0.50;;;0.50;;
13764;SDS011;6953;48.810;9.204;2024-02-26T06:47:20;0.60;;;0.60;;
13764;SDS011;6953;48.810;9.204;2024-02-26T06:49:46;0.70;;;0.70;;
13764;SDS011;6953;48.810;9.204;2024-02-26T06:52:11;0.40;;;0.40;;
13764;SDS011;6953;48.810;9.204;2024-02-26T06:54:36;0.52;;;0.52;;
13764;SDS011;6953;48.810;9.204;2024-02-26T06:57:02;0.45;;;0.45;;
13764;SDS011;6953;48.810;9.204;2024-02-26T06:59:28;0.50;;;0.50;;
13764;SDS011;6953;48.810;9.204;2024-02-26T07:01:54;0.40;;;0.40;;
13764;SDS011;6953;48.810;9.204;2024-02-26T07:04:20;0.50;;;0.50;;
13764;SDS011;6953;48.810;9.204;2024-02-26T07:06:45;0.60;;;0.60;;
13764;SDS011;6953;48.810;9.204;2024-02-26T07:09:11;0.60;;;0.60;;
13764;SDS011;6953;48.810;9.204;2024-02-26T07:11:37;0.50;;;0.50;;
13764;SDS011;6953;48.810;9.204;2024-02-26T07:14:02;0.50;;;0.50;;
13764;SDS011;6953;48.810;9.204;2024-02-26T07:16:28;0.50;;;0.50;;
13764;SDS011;6953;48.810;9.204;2024-02-26T07:18:54;0.50;;;0.50;;
13764;SDS011;6953;48.810;9.204;2024-02-26T07:21:20;0.60;;;0.60;;
13764;SDS011;6953;48.810;9.204;2024-02-26T07:23:45;0.60;;;0.60;;
13764;SDS011;6953;48.810;9.204;2024-02-26T07:26:10;0.50;;;0.50;;
13764;SDS011;6953;48.810;9.204;2024-02-26T07:28:37;0.60;;;0.60;;
13764;SDS011;6953;48.810;9.204;2024-02-26T07:31:02;0.60;;;0.60;;
13764;SDS011;6953;48.810;9.204;2024-02-26T07:33:28;0.70;;;0.70;;
13764;SDS011;6953;48.810;9.204;2024-02-26T07:35:53;0.50;;;0.50;;
13764;SDS011;6953;48.810;9.204;2024-02-26T07:38:19;0.52;;;0.52;;
13764;SDS011;6953;48.810;9.204;2024-02-26T07:40:45;0.60;;;0.60;;
13764;SDS011;6953;48.810;9.204;2024-02-26T07:43:11;0.60;;;0.60;;
13764;SDS011;6953;48.810;9.204;2024-02-26T07:45:36;0.60;;;0.60;;
13764;SDS011;6953;48.810;9.204;2024-02-26T07:48:01;0.60;;;0.60;;
13764;SDS011;6953;48.810;9.204;2024-02-26T07:50:28;0.60;;;0.60;;
13764;SDS011;6953;48.810;9.204;2024-02-26T07:52:53;0.60;;;0.60;;
13764;SDS011;6953;48.810;9.204;2024-02-26T07:55:19;0.60;;;0.60;;
13764;SDS011;6953;48.810;9.204;2024-02-26T07:57:44;0.50;;;0.50;;
13764;SDS011;6953;48.810;9.204;2024-02-26T08:00:10;0.50;;;0.50;;
13764;SDS011;6953;48.810;9.204;2024-02-26T08:02:36;0.40;;;0.40;;
13764;SDS011;6953;48.810;9.204;2024-02-26T08:05:01;0.40;;;0.40;;
13764;SDS011;6953;48.810;9.204;2024-02-26T08:07:27;0.43;;;0.43;;
13764;SDS011;6953;48.810;9.204;2024-02-26T08:09:53;0.50;;;0.50;;
13764;SDS011;6953;48.810;9.204;2024-02-26T08:12:18;0.60;;;0.60;;
13764;SDS011;6953;48.810;9.204;2024-02-26T08:14:44;0.57;;;0.57;;
13764;SDS011;6953;48.810;9.204;2024-02-26T08:17:09;0.50;;;0.50;;
13764;SDS011;6953;48.810;9.204;2024-02-26T08:19:35;0.60;;;0.60;;
13764;SDS011;6953;48.810;9.204;2024-02-26T08:22:00;0.45;;;0.45;;
13764;SDS011;6953;48.810;9.204;2024-02-26T08:24:26;0.50;;;0.50;;
13764;SDS011;6953;48.810;9.204;2024-02-26T08:26:51;0.50;;;0.50;;
13764;SDS011;6953;48.810;9.204;2024-02-26T08:29:17;0.50;;;0.50;;
13764;SDS011;6953;48.810;9.204;2024-02-26T08:31:42;0.50;;;0.50;;
13764;SDS011;6953;48.810;9.204;2024-02-26T08:34:09;0.40;;;0.40;;
13764;SDS011;6953;48.810;9.204;2024-02-26T08:36:34;0.50;;;0.50;;
13764;SDS011;6953;48.810;9.204;2024-02-26T08:39:00;0.52;;;0.52;;
13764;SDS011;6953;48.810;9.204;2024-02-26T08:41:25;0.40;;;0.40;;
13764;SDS011;6953;48.810;9.204;2024-02-26T08:43:51;0.50;;;0.50;;
13764;SDS011;6953;48.810;9.204;2024-02-26T08:46:16;0.40;;;0.40;;
13764;SDS011;6953;48.810;9.204;2024-02-26T08:48:41;0.52;;;0.52;;
13764;SDS011;6953;48.810;9.204;2024-02-26T08:51:07;0.50;;;0.50;;
13764;SDS011;6953;48.810;9.204;2024-02-26T08:53:33;0.45;;;0.45;;
13764;SDS011;6953;48.810;9.204;2024-02-26T08:55:59;0.40;;;0.40;;
13764;SDS011;6953;48.810;9.204;2024-02-26T08:58:24;0.40;;;0.40;;
13764;SDS011;6953;48.810;9.204;2024-02-26T09:00:50;0.40;;;0.40;;
13764;SDS011;6953;48.810;9.204;2024-02-26T09:03:15;0.50;;;0.50;;
13764;SDS011;6953;48.810;9.204;2024-02-26T09:05:40;0.40;;;0.40;;
13764;SDS011;6953;48.810;9.204;2024-02-26T09:08:07;0.45;;;0.45;;
13764;SDS011;6953;48.810;9.204;2024-02-26T09:10:32;0.40;;;0.40;;
13764;SDS011;6953;48.810;9.204;2024-02-26T09:12:59;0.50;;;0.50;;
13764;SDS011;6953;48.810;9.204;2024-02-26T09:15:24;0.40;;;0.40;;
13764;SDS011;6953;48.810;9.204;2024-02-26T09:17:50;0.45;;;0.45;;
13764;SDS011;6953;48.810;9.204;2024-02-26T09:20:15;0.40;;;0.40;;
13764;SDS011;6953;48.810;9.204;2024-02-26T09:22:45;0.38;;;0.38;;
13764;SDS011;6953;48.810;9.204;2024-02-26T09:25:10;0.40;;;0.40;;
13764;SDS011;6953;48.810;9.204;2024-02-26T09:27:36;0.40;;;0.40;;
13764;SDS011;6953;48.810;9.204;2024-02-26T09:30:01;0.30;;;0.30;;
13764;SDS011;6953;48.810;9.204;2024-02-26T09:32:26;0.40;;;0.40;;
13764;SDS011;6953;48.810;9.204;2024-02-26T09:34:52;0.40;;;0.40;;
13764;SDS011;6953;48.810;9.204;2024-02-26T09:37:17;0.50;;;0.50;;
13764;SDS011;6953;48.810;9.204;2024-02-26T09:39:43;0.50;;;0.50;;
13764;SDS011;6953;48.810;9.204;2024-02-26T09:42:08;0.57;;;0.57;;
13764;SDS011;6953;48.810;9.204;2024-02-26T09:44:36;0.45;;;0.45;;
13764;SDS011;6953;48.810;9.204;2024-02-26T09:47:04;0.40;;;0.40;;
13764;SDS011;6953;48.810;9.204;2024-02-26T09:49:32;0.40;;;0.40;;
13764;SDS011;6953;48.810;9.204;2024-02-26T09:51:59;0.40;;;0.40;;
13764;SDS011;6953;48.810;9.204;2024-02-26T09:54:27;0.40;;;0.40;;
13764;SDS011;6953;48.810;9.204;2024-02-26T09:56:53;0.50;;;0.50;;
13764;SDS011;6953;48.810;9.204;2024-02-26T09:59:25;0.50;;;0.50;;
13764;SDS011;6953;48.810;9.204;2024-02-26T10:01:52;0.40;;;0.40;;
13764;SDS011;6953;48.810;9.204;2024-02-26T10:04:18;0.50;;;0.50;;
13764;SDS011;6953;48.810;9.204;2024-02-26T10:06:45;0.40;;;0.40;;
13764;SDS011;6953;48.810;9.204;2024-02-26T10:09:11;0.40;;;0.40;;
13764;SDS011;6953;48.810;9.204;2024-02-26T10:11:37;0.30;;;0.30;;
13764;SDS011;6953;48.810;9.204;2024-02-26T10:14:05;0.30;;;0.30;;
13764;SDS011;6953;48.810;9.204;2024-02-26T10:16:30;0.22;;;0.22;;
13764;SDS011;6953;48.810;9.204;2024-02-26T10:18:56;0.30;;;0.30;;
13764;SDS011;6953;48.810;9.204;2024-02-26T10:21:22;0.25;;;0.25;;
13764;SDS011;6953;48.810;9.204;2024-02-26T10:23:48;0.20;;;0.20;;
13764;SDS011;6953;48.810;9.204;2024-02-26T10:26:15;0.13;;;0.13;;
13764;SDS011;6953;48.810;9.204;2024-02-26T10:28:41;0.10;;;0.10;;
13764;SDS011;6953;48.810;9.204;2024-02-26T10:31:08;0.20;;;0.20;;
13764;SDS011;6953;48.810;9.204;2024-02-26T10:33:34;0.20;;;0.20;;
13764;SDS011;6953;48.810;9.204;2024-02-26T10:36:04;0.20;;;0.20;;
13764;SDS011;6953;48.810;9.204;2024-02-26T10:38:30;0.20;;;0.20;;
13764;SDS011;6953;48.810;9.204;2024-02-26T10:40:56;0.20;;;0.20;;
13764;SDS011;6953;48.810;9.204;2024-02-26T10:43:21;0.20;;;0.20;;
13764;SDS011;6953;48.810;9.204;2024-02-26T10:45:46;0.20;;;0.20;;
13764;SDS011;6953;48.810;9.204;2024-02-26T10:48:13;0.20;;;0.20;;
13764;SDS011;6953;48.810;9.204;2024-02-26T10:50:39;0.20;;;0.20;;
13764;SDS011;6953;48.810;9.204;2024-02-26T10:53:07;0.20;;;0.20;;
13764;SDS011;6953;48.810;9.204;2024-02-26T10:55:40;0.20;;;0.20;;
13764;SDS011;6953;48.810;9.204;2024-02-26T10:58:06;0.20;;;0.20;;
13764;SDS011;6953;48.810;9.204;2024-02-26T11:00:33;0.10;;;0.10;;
13764;SDS011;6953;48.810;9.204;2024-02-26T11:03:01;0.20;;;0.20;;
13764;SDS011;6953;48.810;9.204;2024-02-26T11:05:28;0.20;;;0.20;;
13764;SDS011;6953;48.810;9.204;2024-02-26T11:07:55;0.10;;;0.10;;
13764;SDS011;6953;48.810;9.204;2024-02-26T11:10:22;0.10;;;0.10;;
13764;SDS011;6953;48.810;9.204;2024-02-26T11:12:47;0.20;;;0.20;;
13764;SDS011;6953;48.810;9.204;2024-02-26T11:15:15;0.20;;;0.20;;
13764;SDS011;6953;48.810;9.204;2024-02-26T11:17:41;0.20;;;0.20;;
13764;SDS011;6953;48.810;9.204;2024-02-26T11:20:09;0.15;;;0.15;;
13764;SDS011;6953;48.810;9.204;2024-02-26T11:22:37;0.00;;;0.00;;
13764;SDS011;6953;48.810;9.204;2024-02-26T11:25:03;0.10;;;0.10;;
13764;SDS011;6953;48.810;9.204;2024-02-26T11:27:42;0.10;;;0.10;;
13764;SDS011;6953;48.810;9.204;2024-02-26T11:30:13;0.10;;;0.10;;
13764;SDS011;6953;48.810;9.204;2024-02-26T11:32:40;0.20;;;0.20;;
13764;SDS011;6953;48.810;9.204;2024-02-26T11:35:09;0.20;;;0.20;;
13764;SDS011;6953;48.810;9.204;2024-02-26T11:37:35;0.17;;;0.17;;
13764;SDS011;6953;48.810;9.204;2024-02-26T11:40:01;0.13;;;0.13;;
13764;SDS011;6953;48.810;9.204;2024-02-26T11:42:27;0.20;;;0.20;;
13764;SDS011;6953;48.810;9.204;2024-02-26T11:44:53;0.20;;;0.20;;
13764;SDS011;6953;48.810;9.204;2024-02-26T11:47:21;0.20;;;0.20;;
13764;SDS011;6953;48.810;9.204;2024-02-26T11:49:48;0.20;;;0.20;;
13764;SDS011;6953;48.810;9.204;2024-02-26T11:52:14;0.20;;;0.20;;
13764;SDS011;6953;48.810;9.204;2024-02-26T11:54:50;0.20;;;0.20;;
13764;SDS011;6953;48.810;9.204;2024-02-26T11:57:27;0.20;;;0.20;;
13764;SDS011;6953;48.810;9.204;2024-02-26T12:00:02;0.20;;;0.20;;
13764;SDS011;6953;48.810;9.204;2024-02-26T12:07:43;0.20;;;0.20;;
13764;SDS011;6953;48.810;9.204;2024-02-26T12:13:05;0.20;;;0.20;;
13764;SDS011;6953;48.810;9.204;2024-02-26T12:15:36;0.20;;;0.20;;
13764;SDS011;6953;48.810;9.204;2024-02-26T12:18:03;0.25;;;0.25;;
13764;SDS011;6953;48.810;9.204;2024-02-26T12:20:30;0.30;;;0.30;;
13764;SDS011;6953;48.810;9.204;2024-02-26T12:22:56;0.20;;;0.20;;
13764;SDS011;6953;48.810;9.204;2024-02-26T12:25:24;0.20;;;0.20;;
13764;SDS011;6953;48.810;9.204;2024-02-26T12:27:53;0.20;;;0.20;;
13764;SDS011;6953;48.810;9.204;2024-02-26T12:30:19;0.20;;;0.20;;
13764;SDS011;6953;48.810;9.204;2024-02-26T12:32:49;0.25;;;0.25;;
13764;SDS011;6953;48.810;9.204;2024-02-26T12:35:16;0.30;;;0.30;;
13764;SDS011;6953;48.810;9.204;2024-02-26T12:37:42;0.30;;;0.30;;
13764;SDS011;6953;48.810;9.204;2024-02-26T12:40:08;0.30;;;0.30;;
13764;SDS011;6953;48.810;9.204;2024-02-26T12:42:34;0.20;;;0.20;;
13764;SDS011;6953;48.810;9.204;2024-02-26T12:45:07;0.30;;;0.30;;
13764;SDS011;6953;48.810;9.204;2024-02-26T12:47:38;0.30;;;0.30;;
13764;SDS011;6953;48.810;9.204;2024-02-26T12:50:04;0.30;;;0.30;;
13764;SDS011;6953;48.810;9.204;2024-02-26T12:52:49;0.20;;;0.20;;
13764;SDS011;6953;48.810;9.204;2024-02-26T12:55:16;0.20;;;0.20;;
13764;SDS011;6953;48.810;9.204;2024-02-26T12:57:44;0.30;;;0.30;;
13764;SDS011;6953;48.810;9.204;2024-02-26T13:00:12;0.20;;;0.20;;
13764;SDS011;6953;48.810;9.204;2024-02-26T13:02:39;0.20;;;0.20;;
13764;SDS011;6953;48.810;9.204;2024-02-26T13:05:08;0.20;;;0.20;;
13764;SDS011;6953;48.810;9.204;2024-02-26T13:07:34;0.20;;;0.20;;
13764;SDS011;6953;48.810;9.204;2024-02-26T13:09:59;0.20;;;0.20;;
13764;SDS011;6953;48.810;9.204;2024-02-26T13:12:25;0.20;;;0.20;;
13764;SDS011;6953;48.810;9.204;2024-02-26T13:15:01;0.20;;;0.20;;
13764;SDS011;6953;48.810;9.204;2024-02-26T13:17:31;0.20;;;0.20;;
13764;SDS011;6953;48.810;9.204;2024-02-26T13:19:56;0.20;;;0.20;;
13764;SDS011;6953;48.810;9.204;2024-02-26T13:22:22;0.20;;;0.20;;
13764;SDS011;6953;48.810;9.204;2024-02-26T13:24:57;0.20;;;0.20;;
13764;SDS011;6953;48.810;9.204;2024-02-26T13:27:23;0.20;;;0.20;;
13764;SDS011;6953;48.810;9.204;2024-02-26T13:29:48;0.20;;;0.20;;
13764;SDS011;6953;48.810;9.204;2024-02-26T13:32:14;0.20;;;0.20;;
13764;SDS011;6953;48.810;9.204;2024-02-26T13:34:39;0.20;;;0.20;;
13764;SDS011;6953;48.810;9.204;2024-02-26T13:37:05;0.20;;;0.20;;
13764;SDS011;6953;48.810;9.204;2024-02-26T13:39:30;0.20;;;0.20;;
13764;SDS011;6953;48.810;9.204;2024-02-26T13:41:56;0.30;;;0.30;;
13764;SDS011;6953;48.810;9.204;2024-02-26T13:44:22;0.20;;;0.20;;
13764;SDS011;6953;48.810;9.204;2024-02-26T13:46:48;0.30;;;0.30;;
13764;SDS011;6953;48.810;9.204;2024-02-26T13:49:16;0.20;;;0.20;;
13764;SDS011;6953;48.810;9.204;2024-02-26T13:51:42;0.28;;;0.28;;
13764;SDS011;6953;48.810;9.204;2024-02-26T13:54:07;0.30;;;0.30;;
13764;SDS011;6953;48.810;9.204;2024-02-26T13:56:35;0.20;;;0.20;;
13764;SDS011;6953;48.810;9.204;2024-02-26T13:59:01;0.20;;;0.20;;
13764;SDS011;6953;48.810;9.204;2024-02-26T14:01:27;0.20;;;0.20;;
13764;SDS011;6953;48.810;9.204;2024-02-26T14:03:53;0.20;;;0.20;;
13764;SDS011;6953;48.810;9.204;2024-02-26T14:06:21;0.25;;;0.25;;
13764;SDS011;6953;48.810;9.204;2024-02-26T14:08:47;0.30;;;0.30;;
13764;SDS011;6953;48.810;9.204;2024-02-26T14:11:12;0.20;;;0.20;;
13764;SDS011;6953;48.810;9.204;2024-02-26T14:13:37;0.20;;;0.20;;
13764;SDS011;6953;48.810;9.204;2024-02-26T14:16:03;0.30;;;0.30;;
13764;SDS011;6953;48.810;9.204;2024-02-26T14:18:28;0.30;;;0.30;;
13764;SDS011;6953;48.810;9.204;2024-02-26T14:20:53;0.20;;;0.20;;
13764;SDS011;6953;48.810;9.204;2024-02-26T14:23:19;0.25;;;0.25;;
13764;SDS011;6953;48.810;9.204;2024-02-26T14:25:44;0.30;;;0.30;;
13764;SDS011;6953;48.810;9.204;2024-02-26T14:28:09;0.30;;;0.30;;
13764;SDS011;6953;48.810;9.204;2024-02-26T14:30:35;0.20;;;0.20;;
13764;SDS011;6953;48.810;9.204;2024-02-26T14:33:00;0.30;;;0.30;;
13764;SDS011;6953;48.810;9.204;2024-02-26T14:35:25;0.20;;;0.20;;
13764;SDS011;6953;48.810;9.204;2024-02-26T14:37:51;0.20;;;0.20;;
13764;SDS011;6953;48.810;9.204;2024-02-26T14:40:17;0.22;;;0.22;;
13764;SDS011;6953;48.810;9.204;2024-02-26T14:42:42;0.30;;;0.30;;
13764;SDS011;6953;48.810;9.204;2024-02-26T14:45:08;0.30;;;0.30;;
13764;SDS011;6953;48.810;9.204;2024-02-26T14:47:37;0.20;;;0.20;;
13764;SDS011;6953;48.810;9.204;2024-02-26T14:50:03;0.30;;;0.30;;
13764;SDS011;6953;48.810;9.204;2024-02-26T14:52:29;0.20;;;0.20;;
13764;SDS011;6953;48.810;9.204;2024-02-26T14:54:55;0.20;;;0.20;;
13764;SDS011;6953;48.810;9.204;2024-02-26T14:57:20;0.30;;;0.30;;
13764;SDS011;6953;48.810;9.204;2024-02-26T14:59:45;0.40;;;0.40;;
13764;SDS011;6953;48.810;9.204;2024-02-26T15:02:11;0.50;;;0.50;;